Airfield :
LOGIN :

Register | Disclaimer

   EN    FR    IT 

 










Legend :    VFR   Marginal VFR   IFR   Intensive IFR   Very Intensive IFR
Visi :
Ceiling :
>= 8 km
>= 3000ft
5 to 8 km
1000 to 3000 ft
1500m to 5 km
500 to 1000 ft
800 to 1500m
200 to 500 ft
< 800m
< 200 ft
Symbols :   Thunderstorms  Fog  Heavy snow  Heavy precipitations  Wind > 20 kt
SIGMETs :     Misc.  Thunderstorms  Icing  Turbulence  Mountain Waves  Volcanic Ashes






- Airport Elevation : 81 ft
- IATA code : SCS


EGPM - Scatsta

CURRENT METAR :
  • 020850Z AUTO 28033G51KT 9999 FEW004/// BKN030/// 03/M02 Q0988

EXPIRED METARs :
  • 020820Z AUTO 28035G48KT 9999 FEW012/// SCT023/// BKN039/// 03/M02 Q0988
  • 020750Z 29030G41KT 9999 VCSH FEW030CB 03/M04 Q0988 TEMPO SHRASN
  • 020720Z 29030G47KT 9999 VCSH FEW015CB 03/M04 Q0988 TEMPO SHRASN
  • 020650Z 29024G38KT 9999 VCSH FEW015CB 02/M03 Q0988
  • 020620Z 28033G52KT 9999 -SHSN FEW015CB 01/M03 Q0988

TAF TAF EGPM
Valid from the 02 at 09:00 until the 02 at 18:00 UTC


020758Z 0209/0218 29028G40KT 9999 SCT030
TEMPO 0209/0218 31040G55KT 4000 SHRASN BKN012CB
PROB40
TEMPO 0209/0218 1500 +SHRAGS +SHSN BKN008CB
BECMG 0215/0218 32018G30KT



MET'MAP, your aeronautical weather chart ! - Copyright ORBIFLY December 2007 - Disclaimer

ORBIFLY MET'MAP TEAM :

Programming & Development : Alexandra Zaïnal
Concept & original design : Baudouin d'Aumeries
Assistance for programming : Marc-Olivier Méhu
Technical & hardware support : Manuel Goepfert

Contact : metmap@orbifly.com




SOURCES & CREDITS :

   NOAA